Terminal Aerodrome Forecast
Issued by NWS Austin/San Antonio, TX

Home | Current Version | Previous Version | Text Only | Print | Product List | Glossary On
Versions: 1 2 3 4 5 6 7 8 9 10 11 12 13 14 15 16 17 18 19
700
FTUS44 KEWX 241132
TAFAUS
TAF
KAUS 241132Z 2412/2518 VRB03KT P6SM FEW250
     FM241500 14007KT P6SM FEW040
     FM250900 VRB03KT P6SM FEW025=

USA.gov is the U.S. government's official web portal to all federal, state and local government web resources and services.